createdAt,value
2024-03-27T00:00:51.644Z,100604.58
2024-03-27T00:03:40.925Z,100616.95
2024-03-27T00:06:11.242Z,100622.07
2024-03-27T00:08:39.714Z,100621.00
2024-03-27T00:11:08.392Z,100617.10
2024-03-27T00:13:36.946Z,100612.14
2024-03-27T00:16:05.966Z,100607.17
2024-03-27T00:18:34.685Z,100605.77
2024-03-27T00:21:03.243Z,100605.63
2024-03-27T00:23:31.828Z,100596.24
2024-03-27T00:26:01.012Z,100595.02
2024-03-27T00:28:29.925Z,100595.20
2024-03-27T00:30:58.706Z,100590.26
2024-03-27T00:33:27.198Z,100584.77
2024-03-27T00:35:57.140Z,100576.52
2024-03-27T00:38:26.882Z,100580.41
2024-03-27T00:40:55.459Z,100576.14
2024-03-27T00:43:24.143Z,100575.96
2024-03-27T00:45:53.484Z,100577.36
2024-03-27T00:48:23.026Z,100568.88
2024-03-27T00:50:51.546Z,100560.20
2024-03-27T00:53:20.056Z,100553.99
2024-03-27T00:56:00.469Z,100561.95
2024-03-27T00:58:30.290Z,100563.52
2024-03-27T01:00:59.368Z,100557.70
2024-03-27T01:03:28.453Z,100558.21
2024-03-27T01:05:58.079Z,100557.27
2024-03-27T01:08:27.149Z,100554.20
2024-03-27T01:10:55.629Z,100553.27
2024-03-27T01:13:24.303Z,100550.56
2024-03-27T01:15:54.574Z,100547.52
2024-03-27T01:18:23.481Z,100549.63
2024-03-27T01:20:52.143Z,100560.05
2024-03-27T01:23:20.654Z,100556.70
2024-03-27T01:25:49.184Z,100555.98
2024-03-27T01:28:17.830Z,100557.41
2024-03-27T01:30:46.359Z,100559.91
2024-03-27T01:33:14.937Z,100555.34
2024-03-27T01:35:46.983Z,100557.52
2024-03-27T01:38:15.524Z,100556.67
2024-03-27T01:40:44.159Z,100550.70
2024-03-27T01:43:12.693Z,100552.01
2024-03-27T01:45:41.457Z,100551.85
2024-03-27T01:48:10.119Z,100557.16
2024-03-27T01:50:39.986Z,100555.20
2024-03-27T01:53:12.262Z,100556.80
2024-03-27T01:55:41.065Z,100552.57
2024-03-27T01:58:12.138Z,100551.69
2024-03-27T02:00:40.825Z,100550.98
2024-03-27T02:03:10.189Z,100553.82
2024-03-27T02:05:39.169Z,100551.73
2024-03-27T02:08:07.940Z,100541.68
2024-03-27T02:10:36.698Z,100549.61
2024-03-27T02:13:05.261Z,100547.69
2024-03-27T02:15:33.986Z,100554.62
2024-03-27T02:18:02.602Z,100556.05
2024-03-27T02:20:31.463Z,100547.39
2024-03-27T02:23:09.904Z,100544.43
2024-03-27T02:25:53.257Z,100541.98
2024-03-27T02:28:21.882Z,100541.65
2024-03-27T02:30:52.356Z,100546.61
2024-03-27T02:33:20.964Z,100551.90
2024-03-27T02:35:49.565Z,100552.06
2024-03-27T02:38:18.228Z,100546.23
2024-03-27T02:40:46.927Z,100550.13
2024-03-27T02:43:15.496Z,100549.05
2024-03-27T02:45:44.138Z,100543.91
2024-03-27T02:48:13.472Z,100549.38
2024-03-27T02:50:42.219Z,100548.67
2024-03-27T02:53:10.788Z,100550.79
2024-03-27T02:55:39.391Z,100550.95
2024-03-27T02:58:09.624Z,100543.83
2024-03-27T03:00:38.364Z,100545.23
2024-03-27T03:03:06.927Z,100550.30
2024-03-27T03:09:02.688Z,100555.39
2024-03-27T03:11:31.360Z,100552.92
2024-03-27T03:13:59.988Z,100550.63
2024-03-27T03:16:28.697Z,100557.52
2024-03-27T03:18:57.237Z,100563.88
2024-03-27T03:21:25.824Z,100570.78
2024-03-27T03:23:54.440Z,100568.50
2024-03-27T03:26:22.958Z,100562.48
2024-03-27T03:28:51.534Z,100563.54
2024-03-27T03:31:20.098Z,100570.61
2024-03-27T03:33:48.703Z,100569.91
2024-03-27T03:36:17.256Z,100575.58
2024-03-27T03:38:46.083Z,100579.67
2024-03-27T03:41:15.248Z,100578.98
2024-03-27T03:43:44.167Z,100577.41
2024-03-27T03:46:14.214Z,100578.83
2024-03-27T03:48:42.987Z,100581.33
2024-03-27T03:51:11.615Z,100580.08
2024-03-27T03:53:40.085Z,100581.13
2024-03-27T03:56:08.654Z,100575.30
2024-03-27T03:58:37.290Z,100576.19
2024-03-27T04:01:07.958Z,100577.42
2024-03-27T04:03:39.478Z,100574.07
2024-03-27T04:06:08.160Z,100578.84
2024-03-27T04:08:36.822Z,100579.70
2024-03-27T04:11:05.693Z,100576.31
2024-03-27T04:13:34.537Z,100576.83
2024-03-27T04:16:04.111Z,100578.95
2024-03-27T04:18:32.663Z,100574.86
2024-03-27T04:21:01.612Z,100578.41
2024-03-27T04:23:30.327Z,100576.98
2024-03-27T04:26:06.113Z,100576.82
2024-03-27T04:28:36.905Z,100581.77
2024-03-27T04:31:07.931Z,100584.23
2024-03-27T04:33:36.798Z,100577.70
2024-03-27T04:36:11.483Z,100577.33
2024-03-27T04:38:40.121Z,100569.00
2024-03-27T04:41:10.406Z,100577.25
2024-03-27T04:43:40.610Z,100575.14
2024-03-27T04:46:09.251Z,100576.00
2024-03-27T04:48:38.077Z,100569.61
2024-03-27T04:51:06.884Z,100566.55
2024-03-27T04:53:35.678Z,100566.50
2024-03-27T04:56:05.031Z,100564.83
2024-03-27T04:58:34.087Z,100563.88
2024-03-27T05:01:02.847Z,100563.29
2024-03-27T05:03:31.690Z,100555.98
2024-03-27T05:06:00.547Z,100555.86
2024-03-27T05:08:29.343Z,100554.94
2024-03-27T05:10:57.945Z,100553.11
2024-03-27T05:13:26.983Z,100551.61
2024-03-27T05:15:55.559Z,100559.53
2024-03-27T05:18:24.202Z,100560.52
2024-03-27T05:20:57.882Z,100555.46
2024-03-27T05:23:27.739Z,100552.36
2024-03-27T05:25:57.111Z,100554.75
2024-03-27T05:28:25.816Z,100549.73
2024-03-27T05:30:54.852Z,100547.04
2024-03-27T05:33:23.842Z,100548.44
2024-03-27T05:35:53.131Z,100544.48
2024-03-27T05:38:24.248Z,100538.05
2024-03-27T05:40:53.014Z,100538.80
2024-03-27T05:43:21.817Z,100541.02
2024-03-27T05:45:50.604Z,100545.16
2024-03-27T05:48:19.749Z,100543.99
2024-03-27T05:50:48.663Z,100544.80
2024-03-27T05:53:17.595Z,100544.17
2024-03-27T05:56:01.081Z,100535.16
2024-03-27T05:58:33.172Z,100544.30
2024-03-27T06:01:01.884Z,100550.06
2024-03-27T06:03:31.356Z,100548.72
2024-03-27T06:06:00.161Z,100552.48
2024-03-27T06:08:28.966Z,100548.99
2024-03-27T06:10:59.711Z,100541.65
2024-03-27T06:13:28.943Z,100543.17
2024-03-27T06:15:58.541Z,100541.84
2024-03-27T06:18:27.282Z,100543.60
2024-03-27T06:20:56.227Z,100547.78
2024-03-27T06:23:25.118Z,100548.09
2024-03-27T06:26:03.194Z,100547.41
2024-03-27T06:28:32.319Z,100546.66
2024-03-27T06:34:08.345Z,100545.11
2024-03-27T06:36:38.792Z,100540.95
2024-03-27T06:39:59.980Z,100541.21
2024-03-27T06:42:29.221Z,100546.70
2024-03-27T06:45:01.179Z,100545.71
2024-03-27T06:47:35.823Z,100544.92
2024-03-27T06:50:11.626Z,100549.65
2024-03-27T06:52:40.310Z,100547.02
2024-03-27T06:55:09.985Z,100545.61
2024-03-27T06:57:39.005Z,100537.66
2024-03-27T07:00:11.252Z,100539.42
2024-03-27T07:02:40.837Z,100540.94
2024-03-27T07:05:09.817Z,100544.97
2024-03-27T07:07:38.708Z,100546.96
2024-03-27T07:10:09.537Z,100542.23
2024-03-27T07:12:38.874Z,100542.45
2024-03-27T07:15:08.512Z,100541.68
2024-03-27T07:17:37.564Z,100541.95
2024-03-27T07:20:09.429Z,100537.84
2024-03-27T07:22:38.394Z,100537.09
2024-03-27T07:25:07.531Z,100537.25
2024-03-27T07:27:38.302Z,100534.86
2024-03-27T07:30:10.819Z,100535.79
2024-03-27T07:32:41.315Z,100537.57
2024-03-27T07:35:10.597Z,100539.29
2024-03-27T07:37:39.381Z,100539.98
2024-03-27T07:40:09.432Z,100541.42
2024-03-27T07:42:47.491Z,100541.30
2024-03-27T07:45:16.153Z,100542.79
2024-03-27T07:47:45.556Z,100541.66
2024-03-27T07:50:15.132Z,100545.80
2024-03-27T07:57:21.887Z,100538.46
2024-03-27T07:59:50.493Z,100531.95
2024-03-27T08:02:21.055Z,100533.65
2024-03-27T08:05:20.179Z,100536.09
2024-03-27T08:07:48.903Z,100533.86
2024-03-27T08:10:17.788Z,100539.16
2024-03-27T08:12:47.748Z,100530.02
2024-03-27T08:15:16.650Z,100528.92
2024-03-27T08:17:45.506Z,100533.05
2024-03-27T08:20:14.643Z,100529.88
2024-03-27T08:22:43.362Z,100523.58
2024-03-27T08:25:12.062Z,100524.76
2024-03-27T08:28:38.992Z,100525.73
2024-03-27T08:31:09.678Z,100525.35
2024-03-27T08:33:39.603Z,100527.51
2024-03-27T08:36:08.314Z,100527.30
2024-03-27T08:38:39.241Z,100522.55
2024-03-27T08:41:09.433Z,100524.63
2024-03-27T08:43:38.096Z,100527.55
2024-03-27T08:46:07.957Z,100528.21
2024-03-27T08:48:36.612Z,100532.56
2024-03-27T08:51:05.571Z,100523.14
2024-03-27T08:53:38.783Z,100525.39
2024-03-27T08:56:08.747Z,100526.33
2024-03-27T08:58:40.884Z,100528.34
2024-03-27T09:01:20.462Z,100524.63
2024-03-27T09:03:49.116Z,100527.65
2024-03-27T09:06:22.352Z,100525.42
2024-03-27T09:08:51.159Z,100523.05
2024-03-27T09:11:22.314Z,100527.25
2024-03-27T09:13:51.205Z,100526.23
2024-03-27T09:16:19.910Z,100524.45
2024-03-27T09:18:49.003Z,100525.21
2024-03-27T09:21:17.548Z,100526.43
2024-03-27T09:23:46.220Z,100516.02
2024-03-27T09:26:15.212Z,100526.16
2024-03-27T09:28:44.094Z,100517.09
2024-03-27T09:31:13.506Z,100523.54
2024-03-27T09:33:42.311Z,100520.80
2024-03-27T09:36:17.442Z,100518.14
2024-03-27T09:38:46.064Z,100513.88
2024-03-27T09:41:14.814Z,100515.64
2024-03-27T09:43:45.700Z,100516.84
2024-03-27T09:46:14.416Z,100520.61
2024-03-27T09:48:44.532Z,100508.09
2024-03-27T09:53:45.820Z,100515.34
2024-03-27T09:56:14.716Z,100513.23
2024-03-27T09:58:43.527Z,100514.71
2024-03-27T10:01:12.537Z,100515.98
2024-03-27T10:03:41.272Z,100510.04
2024-03-27T10:06:10.106Z,100507.86
2024-03-27T10:08:39.071Z,100509.12
2024-03-27T10:11:08.761Z,100510.40
2024-03-27T10:13:37.572Z,100506.08
2024-03-27T10:16:15.947Z,100502.87
2024-03-27T10:18:44.826Z,100497.45
2024-03-27T10:21:14.238Z,100491.86
2024-03-27T10:23:44.565Z,100489.77
2024-03-27T10:26:13.900Z,100483.91
2024-03-27T10:28:42.994Z,100493.08
2024-03-27T10:31:14.434Z,100489.61
2024-03-27T10:33:44.574Z,100487.02
2024-03-27T10:36:17.636Z,100488.75
2024-03-27T10:38:47.378Z,100479.02
2024-03-27T10:41:16.683Z,100477.85
2024-03-27T10:43:49.073Z,100480.39
2024-03-27T10:46:18.507Z,100462.98
2024-03-27T10:48:48.220Z,100478.55
2024-03-27T10:51:25.585Z,100466.80
2024-03-27T10:53:56.487Z,100455.04
2024-03-27T10:56:25.971Z,100455.79
2024-03-27T10:58:56.620Z,100455.67
2024-03-27T11:01:26.074Z,100452.64
2024-03-27T11:03:54.960Z,100447.12
2024-03-27T11:06:23.815Z,100436.02
2024-03-27T11:08:52.340Z,100445.36
2024-03-27T11:11:21.544Z,100439.45
2024-03-27T11:13:52.428Z,100436.23
2024-03-27T11:16:24.142Z,100435.61
2024-03-27T11:18:54.561Z,100437.13
2024-03-27T11:21:28.926Z,100426.41
2024-03-27T11:24:04.743Z,100420.95
2024-03-27T11:26:33.989Z,100412.99
2024-03-27T11:29:07.006Z,100418.47
2024-03-27T11:31:41.714Z,100421.75
2024-03-27T11:34:10.611Z,100424.90
2024-03-27T11:36:42.779Z,100410.67
2024-03-27T11:39:11.513Z,100419.27
2024-03-27T11:41:40.412Z,100418.64
2024-03-27T11:44:09.168Z,100424.36
2024-03-27T11:46:40.698Z,100414.89
2024-03-27T11:49:09.420Z,100403.64
2024-03-27T11:52:13.467Z,100399.80
2024-03-27T11:54:42.191Z,100401.30
2024-03-27T11:57:12.529Z,100389.38
2024-03-27T12:00:08.990Z,100401.85
2024-03-27T12:02:38.875Z,100396.77
2024-03-27T12:06:23.097Z,100390.39
2024-03-27T12:08:55.799Z,100390.30
2024-03-27T12:12:18.374Z,100387.52
2024-03-27T12:14:47.129Z,100382.09
2024-03-27T12:17:15.898Z,100384.90
2024-03-27T12:19:57.446Z,100393.77
2024-03-27T12:22:27.201Z,100382.26
2024-03-27T12:24:56.243Z,100392.12
2024-03-27T12:27:31.667Z,100388.64
2024-03-27T12:30:01.722Z,100384.83
2024-03-27T12:32:30.690Z,100384.82
2024-03-27T12:35:03.414Z,100377.77
2024-03-27T12:37:34.016Z,100387.13
2024-03-27T12:40:03.471Z,100381.50
2024-03-27T12:42:32.222Z,100384.80
2024-03-27T12:45:00.879Z,100388.16
2024-03-27T12:47:29.682Z,100385.96
2024-03-27T12:49:58.605Z,100388.67
2024-03-27T12:52:30.640Z,100391.88
2024-03-27T12:55:07.103Z,100387.38
2024-03-27T12:57:51.838Z,100387.05
2024-03-27T13:00:27.650Z,100385.80
2024-03-27T13:03:12.036Z,100383.29
2024-03-27T13:05:45.344Z,100385.42
2024-03-27T13:08:17.883Z,100384.15
2024-03-27T13:10:47.838Z,100375.94
2024-03-27T13:13:17.937Z,100374.99
2024-03-27T13:15:47.884Z,100382.09
2024-03-27T13:18:16.626Z,100377.43
2024-03-27T13:20:45.312Z,100375.84
2024-03-27T13:23:14.082Z,100379.02
2024-03-27T13:25:44.792Z,100379.52
2024-03-27T13:28:13.597Z,100376.10
2024-03-27T13:30:42.788Z,100373.35
2024-03-27T13:33:11.937Z,100363.27
2024-03-27T13:35:40.649Z,100365.42
2024-03-27T13:38:09.467Z,100365.98
2024-03-27T13:40:38.150Z,100373.25
2024-03-27T13:43:07.372Z,100367.98
2024-03-27T13:45:36.275Z,100364.33
2024-03-27T13:48:05.943Z,100360.61
2024-03-27T13:50:36.432Z,100361.05
2024-03-27T13:53:05.231Z,100352.74
2024-03-27T13:55:34.226Z,100359.54
2024-03-27T13:58:04.484Z,100363.83
2024-03-27T14:00:33.307Z,100361.02
2024-03-27T14:03:01.961Z,100372.35
2024-03-27T14:05:30.797Z,100374.13
2024-03-27T14:08:03.600Z,100381.20
2024-03-27T14:10:34.295Z,100384.71
2024-03-27T14:13:06.468Z,100382.94
2024-03-27T14:15:35.722Z,100378.02
2024-03-27T14:18:04.925Z,100379.45
2024-03-27T14:20:33.662Z,100379.23
2024-03-27T14:23:02.597Z,100383.52
2024-03-27T14:25:31.298Z,100374.48
2024-03-27T14:27:59.992Z,100381.30
2024-03-27T14:30:28.853Z,100380.20
2024-03-27T14:32:57.530Z,100380.16
2024-03-27T14:35:26.686Z,100379.91
2024-03-27T14:37:55.722Z,100384.06
2024-03-27T14:40:25.677Z,100376.27
2024-03-27T14:42:54.913Z,100383.16
2024-03-27T14:45:24.238Z,100364.68
2024-03-27T14:47:52.865Z,100375.48
2024-03-27T14:50:21.458Z,100360.30
2024-03-27T14:52:51.125Z,100364.48
2024-03-27T14:55:20.085Z,100356.72
2024-03-27T14:57:50.203Z,100360.18
2024-03-27T15:00:19.285Z,100353.98
2024-03-27T15:02:48.058Z,100362.94
2024-03-27T15:05:17.122Z,100362.13
2024-03-27T15:07:46.051Z,100370.63
2024-03-27T15:10:14.872Z,100374.46
2024-03-27T15:12:43.784Z,100369.23
2024-03-27T15:15:13.112Z,100371.93
2024-03-27T15:17:42.293Z,100367.89
2024-03-27T15:20:12.566Z,100370.15
2024-03-27T15:22:41.368Z,100367.39
2024-03-27T15:25:10.690Z,100363.55
2024-03-27T15:27:39.714Z,100362.84
2024-03-27T15:30:09.396Z,100360.77
2024-03-27T15:32:38.367Z,100349.66
2024-03-27T15:35:08.161Z,100363.52
2024-03-27T15:37:38.002Z,100354.02
2024-03-27T15:43:37.934Z,100345.24
2024-03-27T15:46:06.768Z,100339.46
2024-03-27T15:48:36.107Z,100329.92
2024-03-27T15:51:07.720Z,100334.40
2024-03-27T15:53:40.330Z,100335.86
2024-03-27T15:56:32.062Z,100331.81
2024-03-27T16:02:16.650Z,100336.36
2024-03-27T16:05:16.699Z,100337.87
2024-03-27T16:08:08.003Z,100335.00
2024-03-27T16:10:47.125Z,100337.11
2024-03-27T16:13:17.576Z,100333.96
2024-03-27T16:16:28.746Z,100332.10
2024-03-27T16:18:58.833Z,100340.15
2024-03-27T16:21:42.452Z,100335.06
2024-03-27T16:24:19.227Z,100331.97
2024-03-27T16:27:02.112Z,100325.04
2024-03-27T16:29:31.689Z,100323.13
2024-03-27T16:32:02.361Z,100322.16
2024-03-27T16:34:36.422Z,100320.42
2024-03-27T16:38:04.344Z,100317.13
2024-03-27T16:40:34.471Z,100311.54
2024-03-27T16:43:07.660Z,100312.03
2024-03-27T16:45:42.874Z,100315.96
2024-03-27T16:48:20.363Z,100323.80
2024-03-27T16:51:07.423Z,100325.46
2024-03-27T16:53:50.507Z,100323.70
2024-03-27T16:56:28.897Z,100328.02
2024-03-27T16:59:19.597Z,100324.83
2024-03-27T17:05:30.897Z,100311.45
2024-03-27T17:08:37.367Z,100307.03
2024-03-27T17:11:32.523Z,100305.15
2024-03-27T17:14:01.730Z,100304.36
2024-03-27T17:16:36.814Z,100304.61
2024-03-27T17:19:05.646Z,100305.89
2024-03-27T17:21:34.907Z,100307.89
2024-03-27T17:24:05.604Z,100311.89
2024-03-27T17:26:36.063Z,100310.25
2024-03-27T17:29:09.178Z,100304.42
2024-03-27T17:31:38.521Z,100302.25
2024-03-27T17:34:07.352Z,100310.80
2024-03-27T17:36:36.346Z,100307.60
2024-03-27T17:39:14.620Z,100309.95
2024-03-27T17:41:47.500Z,100307.41
2024-03-27T17:44:17.134Z,100314.17
2024-03-27T17:47:08.864Z,100311.70
2024-03-27T17:49:50.266Z,100309.83
2024-03-27T17:56:06.499Z,100304.89
2024-03-27T17:58:47.725Z,100306.35
2024-03-27T18:03:07.988Z,100299.17
2024-03-27T18:07:22.710Z,100302.21
2024-03-27T18:15:22.691Z,100299.50
2024-03-27T18:18:31.541Z,100289.80
2024-03-27T18:21:04.245Z,100285.39
2024-03-27T18:37:37.747Z,100283.27
2024-03-27T18:41:14.154Z,100281.27
2024-03-27T18:44:05.461Z,100280.02
2024-03-27T18:47:13.127Z,100281.80
2024-03-27T18:49:55.760Z,100282.79
2024-03-27T18:52:25.840Z,100279.98
2024-03-27T18:55:00.773Z,100278.15
2024-03-27T18:57:41.636Z,100276.89
2024-03-27T19:00:17.790Z,100278.14
2024-03-27T19:02:53.903Z,100280.20
2024-03-27T19:05:31.690Z,100281.78
2024-03-27T19:08:02.625Z,100285.63
2024-03-27T19:10:57.951Z,100280.16
2024-03-27T19:13:52.396Z,100279.78
2024-03-27T19:16:38.715Z,100278.45
2024-03-27T19:19:17.375Z,100274.57
2024-03-27T19:21:51.083Z,100271.08
2024-03-27T19:24:19.938Z,100262.83
2024-03-27T19:26:50.484Z,100261.79
2024-03-27T19:29:30.780Z,100259.98
2024-03-27T19:32:16.864Z,100253.48
2024-03-27T19:34:49.679Z,100251.05
2024-03-27T19:37:19.079Z,100247.01
2024-03-27T19:39:51.162Z,100248.21
2024-03-27T19:42:20.177Z,100248.98
2024-03-27T19:44:49.864Z,100246.49
2024-03-27T19:47:21.810Z,100248.89
2024-03-27T19:50:04.194Z,100252.66
2024-03-27T19:52:42.337Z,100250.42
2024-03-27T19:55:14.818Z,100254.56
2024-03-27T19:57:46.207Z,100257.43
2024-03-27T20:00:16.767Z,100253.55
2024-03-27T20:02:48.476Z,100253.96
2024-03-27T20:05:20.928Z,100250.82
2024-03-27T20:07:56.740Z,100252.51
2024-03-27T20:10:28.796Z,100249.84
2024-03-27T20:12:57.640Z,100247.30
2024-03-27T20:15:27.451Z,100244.16
2024-03-27T20:17:59.225Z,100243.23
2024-03-27T20:20:32.541Z,100237.86
2024-03-27T20:23:04.815Z,100239.01
2024-03-27T20:26:13.029Z,100240.13
2024-03-27T20:28:48.535Z,100239.01
2024-03-27T20:31:19.383Z,100236.39
2024-03-27T20:33:48.049Z,100237.91
2024-03-27T20:36:18.305Z,100235.55
2024-03-27T20:38:47.555Z,100242.55
2024-03-27T20:41:19.918Z,100245.64
2024-03-27T20:43:49.856Z,100243.55
2024-03-27T20:46:19.841Z,100245.99
2024-03-27T20:48:48.559Z,100246.55
2024-03-27T20:51:20.406Z,100244.69
2024-03-27T20:53:49.713Z,100240.77
2024-03-27T20:56:18.361Z,100240.17
2024-03-27T20:58:47.562Z,100238.34
2024-03-27T21:01:16.532Z,100238.05
2024-03-27T21:03:57.424Z,100235.24
2024-03-27T21:06:29.728Z,100230.34
2024-03-27T21:09:01.407Z,100226.87
2024-03-27T21:11:30.060Z,100221.98
2024-03-27T21:13:58.988Z,100217.16
2024-03-27T21:16:27.657Z,100215.14
2024-03-27T21:18:56.587Z,100211.95
2024-03-27T21:21:26.198Z,100208.08
2024-03-27T21:23:55.466Z,100209.38
2024-03-27T21:26:24.940Z,100204.43
2024-03-27T21:28:55.161Z,100197.97
2024-03-27T21:31:24.178Z,100200.14
2024-03-27T21:33:53.491Z,100203.45
2024-03-27T21:36:26.141Z,100194.73
2024-03-27T21:38:55.128Z,100194.06
2024-03-27T21:41:24.124Z,100188.21
2024-03-27T21:43:53.101Z,100181.54
2024-03-27T21:46:22.069Z,100173.95
2024-03-27T21:48:51.175Z,100170.10
2024-03-27T21:53:49.918Z,100172.48
2024-03-27T21:56:18.536Z,100171.79
2024-03-27T21:58:48.538Z,100167.73
2024-03-27T22:01:17.402Z,100177.41
2024-03-27T22:03:47.529Z,100172.17
2024-03-27T22:06:16.471Z,100162.38
2024-03-27T22:08:45.090Z,100162.70
2024-03-27T22:11:14.155Z,100154.38
2024-03-27T22:13:46.648Z,100147.70
2024-03-27T22:16:15.455Z,100151.58
2024-03-27T22:18:44.585Z,100149.84
2024-03-27T22:21:16.207Z,100149.82
2024-03-27T22:23:45.076Z,100152.30
2024-03-27T22:26:19.617Z,100147.04
2024-03-27T22:28:51.955Z,100151.52
2024-03-27T22:31:25.103Z,100151.11
2024-03-27T22:33:54.006Z,100157.73
2024-03-27T22:36:22.635Z,100160.89
2024-03-27T22:38:51.464Z,100157.89
2024-03-27T22:41:21.512Z,100158.11
2024-03-27T22:43:50.151Z,100148.01
2024-03-27T22:46:18.729Z,100151.92
2024-03-27T22:48:56.959Z,100151.81
2024-03-27T22:51:29.727Z,100149.20
2024-03-27T22:53:58.822Z,100149.90
2024-03-27T22:56:28.645Z,100149.56
2024-03-27T22:58:57.607Z,100149.86
2024-03-27T23:01:28.562Z,100141.30
2024-03-27T23:03:57.262Z,100141.45
2024-03-27T23:06:25.819Z,100139.86
2024-03-27T23:08:54.554Z,100148.55
2024-03-27T23:11:23.256Z,100150.73
2024-03-27T23:13:51.761Z,100149.13
2024-03-27T23:16:20.714Z,100150.40
2024-03-27T23:18:49.280Z,100151.60
2024-03-27T23:21:18.082Z,100145.86
2024-03-27T23:23:46.671Z,100143.04
2024-03-27T23:26:15.210Z,100145.98
2024-03-27T23:28:43.910Z,100138.73
2024-03-27T23:31:12.552Z,100131.86
2024-03-27T23:33:41.121Z,100129.70
2024-03-27T23:36:10.284Z,100125.03
2024-03-27T23:38:39.226Z,100128.41
2024-03-27T23:41:09.181Z,100128.04
2024-03-27T23:43:38.162Z,100122.77
2024-03-27T23:46:06.752Z,100117.06
2024-03-27T23:48:35.489Z,100109.29
2024-03-27T23:51:06.243Z,100108.64
2024-03-27T23:53:38.143Z,100095.95
2024-03-27T23:56:07.011Z,100091.45
2024-03-27T23:58:35.984Z,100083.33
